Aviation Digital Data Service (ADDS)

Output produced by METARs form (1307 UTC 22 April 2021)
found at http://www.aviationweather.gov/metar/data/
 
VTSM 221300Z VRB04KT 9999 FEW020 29/24 Q1009 NOSIG
VTSM 221200Z VRB03KT 9999 FEW020 29/24 Q1008 NOSIG
VTSM 221100Z 31005KT 9999 FEW020 31/24 Q1008 NOSIG
VTSM 221000Z 31004KT 9999 FEW020 31/24 Q1007 NOSIG
VTSM 220900Z 33004KT 9999 FEW020 31/24 Q1007 NOSIG
VTSM 220800Z 31007KT 9999 FEW020 31/25 Q1007 NOSIG
VTSM 220700Z 31006KT 9999 FEW020 31/25 Q1009 NOSIG
VTSM 220600Z 33008KT 9999 FEW020 BKN100 31/25 Q1010 NOSIG
VTSM 220500Z 31011KT 9999 SCT020 31/26 Q1011 NOSIG
VTSM 220400Z 33010KT 9999 SCT020 33/25 Q1011 NOSIG
VTSM 220300Z 30007KT 9999 FEW020 32/25 Q1012 NOSIG
VTSM 220200Z 33007KT 9999 FEW020 32/25 Q1012 NOSIG
VTSM 220100Z 30006KT 9999 FEW020 31/26 Q1011 NOSIG
VTSM 220000Z 00000KT 9999 FEW020 28/26 Q1010 NOSIG
VTSM 212300Z 00000KT 9999 FEW020 28/25 Q1009 NOSIG
TAF VTSM 221100Z 2212/2312 32005KT 9999 FEW020 
     TEMPO 2223/2305 4000 TSRA FEW016CB SCT018 BKN100 
     TEMPO 2306/2312 VRB10G20KT 4000 TSRA FEW016CB SCT018 BKN100